sensor_id;sensor_type;location;lat;lon;timestamp;P1;durP1;ratioP1;P2;durP2;ratioP2
74042;SDS011;62384;53.600;10.040;2022-12-18T00:02:06;19.23;;;6.60;;
74042;SDS011;62384;53.600;10.040;2022-12-18T00:04:31;12.60;;;6.53;;
74042;SDS011;62384;53.600;10.040;2022-12-18T00:06:57;14.53;;;7.13;;
74042;SDS011;62384;53.600;10.040;2022-12-18T00:09:22;14.67;;;6.83;;
74042;SDS011;62384;53.600;10.040;2022-12-18T00:11:50;12.97;;;7.83;;
74042;SDS011;62384;53.600;10.040;2022-12-18T00:14:16;16.00;;;7.23;;
74042;SDS011;62384;53.600;10.040;2022-12-18T00:16:45;21.00;;;7.63;;
74042;SDS011;62384;53.600;10.040;2022-12-18T00:19:11;15.93;;;7.03;;
74042;SDS011;62384;53.600;10.040;2022-12-18T00:21:37;21.03;;;7.37;;
74042;SDS011;62384;53.600;10.040;2022-12-18T00:24:06;12.13;;;6.60;;
74042;SDS011;62384;53.600;10.040;2022-12-18T00:26:32;16.23;;;7.60;;
74042;SDS011;62384;53.600;10.040;2022-12-18T00:29:07;19.43;;;7.20;;
74042;SDS011;62384;53.600;10.040;2022-12-18T00:31:36;15.27;;;7.23;;
74042;SDS011;62384;53.600;10.040;2022-12-18T00:34:03;16.50;;;7.50;;
74042;SDS011;62384;53.600;10.040;2022-12-18T00:36:32;15.70;;;6.83;;
74042;SDS011;62384;53.600;10.040;2022-12-18T00:38:59;13.05;;;7.15;;
74042;SDS011;62384;53.600;10.040;2022-12-18T00:41:25;25.57;;;8.17;;
74042;SDS011;62384;53.600;10.040;2022-12-18T00:44:11;15.20;;;6.83;;
74042;SDS011;62384;53.600;10.040;2022-12-18T00:46:39;10.13;;;5.63;;
74042;SDS011;62384;53.600;10.040;2022-12-18T00:49:07;15.27;;;7.23;;
74042;SDS011;62384;53.600;10.040;2022-12-18T00:51:32;14.83;;;7.20;;
74042;SDS011;62384;53.600;10.040;2022-12-18T00:53:58;13.83;;;6.87;;
74042;SDS011;62384;53.600;10.040;2022-12-18T00:56:23;17.07;;;7.87;;
74042;SDS011;62384;53.600;10.040;2022-12-18T00:58:49;14.90;;;6.57;;
74042;SDS011;62384;53.600;10.040;2022-12-18T01:01:15;16.40;;;6.83;;
74042;SDS011;62384;53.600;10.040;2022-12-18T01:03:41;14.27;;;6.80;;
74042;SDS011;62384;53.600;10.040;2022-12-18T01:06:07;12.43;;;6.67;;
74042;SDS011;62384;53.600;10.040;2022-12-18T01:08:34;16.23;;;6.93;;
74042;SDS011;62384;53.600;10.040;2022-12-18T01:11:00;14.33;;;6.10;;
74042;SDS011;62384;53.600;10.040;2022-12-18T01:13:26;14.10;;;6.63;;
74042;SDS011;62384;53.600;10.040;2022-12-18T01:15:51;18.20;;;7.80;;
74042;SDS011;62384;53.600;10.040;2022-12-18T01:18:17;11.13;;;6.10;;
74042;SDS011;62384;53.600;10.040;2022-12-18T01:20:42;17.27;;;6.20;;
74042;SDS011;62384;53.600;10.040;2022-12-18T01:23:10;11.20;;;6.87;;
74042;SDS011;62384;53.600;10.040;2022-12-18T01:25:36;12.20;;;6.27;;
74042;SDS011;62384;53.600;10.040;2022-12-18T01:28:01;10.47;;;5.83;;
74042;SDS011;62384;53.600;10.040;2022-12-18T01:30:27;15.03;;;5.73;;
74042;SDS011;62384;53.600;10.040;2022-12-18T01:32:53;15.37;;;5.93;;
74042;SDS011;62384;53.600;10.040;2022-12-18T01:35:18;11.83;;;6.80;;
74042;SDS011;62384;53.600;10.040;2022-12-18T01:37:44;12.40;;;6.20;;
74042;SDS011;62384;53.600;10.040;2022-12-18T01:40:09;14.80;;;7.43;;
74042;SDS011;62384;53.600;10.040;2022-12-18T01:42:34;16.40;;;6.37;;
74042;SDS011;62384;53.600;10.040;2022-12-18T01:45:08;13.43;;;5.00;;
74042;SDS011;62384;53.600;10.040;2022-12-18T01:47:52;11.13;;;6.63;;
74042;SDS011;62384;53.600;10.040;2022-12-18T01:50:22;13.23;;;6.33;;
74042;SDS011;62384;53.600;10.040;2022-12-18T01:53:15;14.40;;;5.67;;
74042;SDS011;62384;53.600;10.040;2022-12-18T01:55:48;15.53;;;7.17;;
74042;SDS011;62384;53.600;10.040;2022-12-18T01:58:16;12.97;;;6.00;;
74042;SDS011;62384;53.600;10.040;2022-12-18T02:00:43;11.47;;;5.47;;
74042;SDS011;62384;53.600;10.040;2022-12-18T02:03:08;10.70;;;6.17;;
74042;SDS011;62384;53.600;10.040;2022-12-18T02:16:57;15.80;;;5.27;;
74042;SDS011;62384;53.600;10.040;2022-12-18T02:22:34;11.87;;;4.80;;
74042;SDS011;62384;53.600;10.040;2022-12-18T02:27:46;10.33;;;5.60;;
74042;SDS011;62384;53.600;10.040;2022-12-18T02:30:14;10.80;;;6.13;;
74042;SDS011;62384;53.600;10.040;2022-12-18T02:32:41;16.77;;;4.80;;
74042;SDS011;62384;53.600;10.040;2022-12-18T02:35:14;13.20;;;5.20;;
74042;SDS011;62384;53.600;10.040;2022-12-18T02:37:43;10.37;;;5.83;;
74042;SDS011;62384;53.600;10.040;2022-12-18T02:40:11;9.47;;;5.40;;
74042;SDS011;62384;53.600;10.040;2022-12-18T02:42:38;15.00;;;5.97;;
74042;SDS011;62384;53.600;10.040;2022-12-18T02:45:03;16.60;;;6.47;;
74042;SDS011;62384;53.600;10.040;2022-12-18T02:47:31;12.77;;;5.67;;
74042;SDS011;62384;53.600;10.040;2022-12-18T03:00:33;9.57;;;5.43;;
74042;SDS011;62384;53.600;10.040;2022-12-18T03:03:09;11.70;;;5.63;;
74042;SDS011;62384;53.600;10.040;2022-12-18T03:05:43;10.27;;;6.00;;
74042;SDS011;62384;53.600;10.040;2022-12-18T03:08:20;12.00;;;5.20;;
74042;SDS011;62384;53.600;10.040;2022-12-18T03:11:00;12.43;;;5.33;;
74042;SDS011;62384;53.600;10.040;2022-12-18T03:13:31;9.47;;;4.57;;
74042;SDS011;62384;53.600;10.040;2022-12-18T03:16:19;12.10;;;5.50;;
74042;SDS011;62384;53.600;10.040;2022-12-18T03:18:50;7.80;;;4.18;;
74042;SDS011;62384;53.600;10.040;2022-12-18T03:21:28;12.85;;;6.30;;
74042;SDS011;62384;53.600;10.040;2022-12-18T03:23:58;12.87;;;5.43;;
74042;SDS011;62384;53.600;10.040;2022-12-18T03:26:24;9.97;;;5.33;;
74042;SDS011;62384;53.600;10.040;2022-12-18T03:28:53;10.93;;;4.97;;
74042;SDS011;62384;53.600;10.040;2022-12-18T03:31:25;16.53;;;5.40;;
74042;SDS011;62384;53.600;10.040;2022-12-18T03:33:54;11.07;;;4.67;;
74042;SDS011;62384;53.600;10.040;2022-12-18T03:36:22;11.17;;;5.07;;
74042;SDS011;62384;53.600;10.040;2022-12-18T03:38:48;9.77;;;5.10;;
74042;SDS011;62384;53.600;10.040;2022-12-18T03:41:30;12.10;;;5.80;;
74042;SDS011;62384;53.600;10.040;2022-12-18T03:49:56;8.93;;;4.63;;
74042;SDS011;62384;53.600;10.040;2022-12-18T03:52:33;10.27;;;5.37;;
74042;SDS011;62384;53.600;10.040;2022-12-18T03:55:03;12.47;;;4.17;;
74042;SDS011;62384;53.600;10.040;2022-12-18T03:57:30;13.83;;;4.27;;
74042;SDS011;62384;53.600;10.040;2022-12-18T03:59:59;17.77;;;5.60;;
74042;SDS011;62384;53.600;10.040;2022-12-18T04:02:28;12.38;;;5.88;;
74042;SDS011;62384;53.600;10.040;2022-12-18T04:04:57;12.13;;;4.37;;
74042;SDS011;62384;53.600;10.040;2022-12-18T04:07:24;8.00;;;4.97;;
74042;SDS011;62384;53.600;10.040;2022-12-18T04:09:50;13.80;;;5.27;;
74042;SDS011;62384;53.600;10.040;2022-12-18T04:12:20;9.75;;;4.47;;
74042;SDS011;62384;53.600;10.040;2022-12-18T04:14:45;9.77;;;4.40;;
74042;SDS011;62384;53.600;10.040;2022-12-18T04:17:11;9.00;;;5.00;;
74042;SDS011;62384;53.600;10.040;2022-12-18T04:19:36;14.50;;;6.43;;
74042;SDS011;62384;53.600;10.040;2022-12-18T04:22:01;8.87;;;4.77;;
74042;SDS011;62384;53.600;10.040;2022-12-18T04:24:29;9.90;;;4.17;;
74042;SDS011;62384;53.600;10.040;2022-12-18T04:26:55;12.27;;;4.63;;
74042;SDS011;62384;53.600;10.040;2022-12-18T04:29:20;7.50;;;4.90;;
74042;SDS011;62384;53.600;10.040;2022-12-18T04:31:45;10.00;;;5.40;;
74042;SDS011;62384;53.600;10.040;2022-12-18T04:34:10;7.53;;;4.13;;
74042;SDS011;62384;53.600;10.040;2022-12-18T04:36:36;10.50;;;5.23;;
74042;SDS011;62384;53.600;10.040;2022-12-18T04:39:02;11.87;;;4.80;;
74042;SDS011;62384;53.600;10.040;2022-12-18T04:41:27;11.73;;;5.20;;
74042;SDS011;62384;53.600;10.040;2022-12-18T04:43:52;8.33;;;5.40;;
74042;SDS011;62384;53.600;10.040;2022-12-18T04:46:17;10.80;;;5.27;;
74042;SDS011;62384;53.600;10.040;2022-12-18T04:48:44;12.80;;;5.23;;
74042;SDS011;62384;53.600;10.040;2022-12-18T04:51:10;9.57;;;4.70;;
74042;SDS011;62384;53.600;10.040;2022-12-18T04:53:36;12.30;;;5.47;;
74042;SDS011;62384;53.600;10.040;2022-12-18T04:56:02;9.33;;;4.33;;
74042;SDS011;62384;53.600;10.040;2022-12-18T04:58:33;8.60;;;4.57;;
74042;SDS011;62384;53.600;10.040;2022-12-18T05:00:58;21.20;;;4.80;;
74042;SDS011;62384;53.600;10.040;2022-12-18T05:03:23;9.40;;;4.70;;
74042;SDS011;62384;53.600;10.040;2022-12-18T05:05:49;8.43;;;4.57;;
74042;SDS011;62384;53.600;10.040;2022-12-18T05:08:16;10.03;;;4.87;;
74042;SDS011;62384;53.600;10.040;2022-12-18T05:10:41;11.17;;;5.37;;
74042;SDS011;62384;53.600;10.040;2022-12-18T05:13:06;8.83;;;4.87;;
74042;SDS011;62384;53.600;10.040;2022-12-18T05:15:32;16.50;;;5.07;;
74042;SDS011;62384;53.600;10.040;2022-12-18T05:17:58;9.53;;;5.07;;
74042;SDS011;62384;53.600;10.040;2022-12-18T05:20:24;13.27;;;6.23;;
74042;SDS011;62384;53.600;10.040;2022-12-18T05:22:51;6.20;;;3.80;;
74042;SDS011;62384;53.600;10.040;2022-12-18T05:25:17;15.93;;;5.87;;
74042;SDS011;62384;53.600;10.040;2022-12-18T05:27:46;14.37;;;4.83;;
74042;SDS011;62384;53.600;10.040;2022-12-18T05:30:11;6.57;;;4.97;;
74042;SDS011;62384;53.600;10.040;2022-12-18T05:32:38;8.60;;;4.70;;
74042;SDS011;62384;53.600;10.040;2022-12-18T05:35:05;12.90;;;5.23;;
74042;SDS011;62384;53.600;10.040;2022-12-18T05:37:31;9.87;;;5.30;;
74042;SDS011;62384;53.600;10.040;2022-12-18T05:39:57;12.87;;;4.87;;
74042;SDS011;62384;53.600;10.040;2022-12-18T05:42:22;10.47;;;4.73;;
74042;SDS011;62384;53.600;10.040;2022-12-18T05:44:50;10.93;;;4.87;;
74042;SDS011;62384;53.600;10.040;2022-12-18T05:47:15;13.27;;;5.07;;
74042;SDS011;62384;53.600;10.040;2022-12-18T05:49:41;12.27;;;5.90;;
74042;SDS011;62384;53.600;10.040;2022-12-18T05:52:06;8.93;;;4.50;;
74042;SDS011;62384;53.600;10.040;2022-12-18T05:54:31;11.47;;;4.57;;
74042;SDS011;62384;53.600;10.040;2022-12-18T05:56:57;13.37;;;5.53;;
74042;SDS011;62384;53.600;10.040;2022-12-18T05:59:22;10.90;;;5.33;;
74042;SDS011;62384;53.600;10.040;2022-12-18T06:01:48;12.67;;;5.53;;
74042;SDS011;62384;53.600;10.040;2022-12-18T06:04:13;10.73;;;4.87;;
74042;SDS011;62384;53.600;10.040;2022-12-18T06:06:39;10.73;;;4.73;;
74042;SDS011;62384;53.600;10.040;2022-12-18T06:09:04;6.87;;;4.50;;
74042;SDS011;62384;53.600;10.040;2022-12-18T06:11:35;8.83;;;4.53;;
74042;SDS011;62384;53.600;10.040;2022-12-18T06:14:02;18.47;;;5.70;;
74042;SDS011;62384;53.600;10.040;2022-12-18T06:16:28;9.87;;;5.77;;
74042;SDS011;62384;53.600;10.040;2022-12-18T06:18:58;12.77;;;5.97;;
74042;SDS011;62384;53.600;10.040;2022-12-18T06:21:25;9.87;;;4.93;;
74042;SDS011;62384;53.600;10.040;2022-12-18T06:23:50;7.20;;;4.80;;
74042;SDS011;62384;53.600;10.040;2022-12-18T06:26:15;9.57;;;4.77;;
74042;SDS011;62384;53.600;10.040;2022-12-18T06:28:41;16.10;;;6.00;;
74042;SDS011;62384;53.600;10.040;2022-12-18T06:31:07;13.90;;;6.30;;
74042;SDS011;62384;53.600;10.040;2022-12-18T06:33:33;10.60;;;5.53;;
74042;SDS011;62384;53.600;10.040;2022-12-18T06:36:02;8.90;;;4.27;;
74042;SDS011;62384;53.600;10.040;2022-12-18T06:38:30;8.63;;;4.93;;
74042;SDS011;62384;53.600;10.040;2022-12-18T06:40:56;13.33;;;4.83;;
74042;SDS011;62384;53.600;10.040;2022-12-18T06:43:21;13.70;;;5.40;;
74042;SDS011;62384;53.600;10.040;2022-12-18T06:45:50;10.57;;;4.27;;
74042;SDS011;62384;53.600;10.040;2022-12-18T06:48:18;13.90;;;4.63;;
74042;SDS011;62384;53.600;10.040;2022-12-18T06:50:44;12.43;;;4.73;;
74042;SDS011;62384;53.600;10.040;2022-12-18T06:53:10;8.80;;;5.80;;
74042;SDS011;62384;53.600;10.040;2022-12-18T06:55:35;15.53;;;6.43;;
74042;SDS011;62384;53.600;10.040;2022-12-18T06:58:01;8.77;;;4.63;;
74042;SDS011;62384;53.600;10.040;2022-12-18T07:00:26;10.00;;;4.87;;
74042;SDS011;62384;53.600;10.040;2022-12-18T07:02:51;13.67;;;6.10;;
74042;SDS011;62384;53.600;10.040;2022-12-18T07:05:17;9.23;;;4.73;;
74042;SDS011;62384;53.600;10.040;2022-12-18T07:07:42;11.43;;;5.80;;
74042;SDS011;62384;53.600;10.040;2022-12-18T07:12:59;15.80;;;5.65;;
74042;SDS011;62384;53.600;10.040;2022-12-18T07:15:24;11.33;;;5.77;;
74042;SDS011;62384;53.600;10.040;2022-12-18T07:17:49;14.40;;;5.57;;
74042;SDS011;62384;53.600;10.040;2022-12-18T07:20:14;16.37;;;5.50;;
74042;SDS011;62384;53.600;10.040;2022-12-18T07:22:40;14.87;;;5.67;;
74042;SDS011;62384;53.600;10.040;2022-12-18T07:25:05;12.30;;;5.00;;
74042;SDS011;62384;53.600;10.040;2022-12-18T07:27:31;12.70;;;6.23;;
74042;SDS011;62384;53.600;10.040;2022-12-18T07:29:56;21.37;;;5.90;;
74042;SDS011;62384;53.600;10.040;2022-12-18T07:32:22;13.03;;;5.33;;
74042;SDS011;62384;53.600;10.040;2022-12-18T07:34:47;12.97;;;5.87;;
74042;SDS011;62384;53.600;10.040;2022-12-18T07:37:12;15.20;;;5.40;;
74042;SDS011;62384;53.600;10.040;2022-12-18T07:39:38;14.67;;;5.13;;
74042;SDS011;62384;53.600;10.040;2022-12-18T07:42:03;16.93;;;5.80;;
74042;SDS011;62384;53.600;10.040;2022-12-18T07:44:47;9.57;;;4.97;;
74042;SDS011;62384;53.600;10.040;2022-12-18T07:47:12;13.47;;;6.60;;
74042;SDS011;62384;53.600;10.040;2022-12-18T07:49:37;10.03;;;5.63;;
74042;SDS011;62384;53.600;10.040;2022-12-18T07:52:03;14.37;;;6.20;;
74042;SDS011;62384;53.600;10.040;2022-12-18T07:54:28;15.27;;;6.23;;
74042;SDS011;62384;53.600;10.040;2022-12-18T07:56:54;14.00;;;6.17;;
74042;SDS011;62384;53.600;10.040;2022-12-18T07:59:28;15.00;;;5.90;;
74042;SDS011;62384;53.600;10.040;2022-12-18T08:01:53;15.93;;;6.47;;
74042;SDS011;62384;53.600;10.040;2022-12-18T08:04:19;9.30;;;4.93;;
74042;SDS011;62384;53.600;10.040;2022-12-18T08:06:44;12.13;;;6.27;;
74042;SDS011;62384;53.600;10.040;2022-12-18T08:09:10;13.87;;;6.90;;
74042;SDS011;62384;53.600;10.040;2022-12-18T08:11:35;13.40;;;5.33;;
74042;SDS011;62384;53.600;10.040;2022-12-18T08:14:00;11.33;;;5.93;;
74042;SDS011;62384;53.600;10.040;2022-12-18T08:16:26;12.33;;;6.00;;
74042;SDS011;62384;53.600;10.040;2022-12-18T08:18:51;14.47;;;6.07;;
74042;SDS011;62384;53.600;10.040;2022-12-18T08:21:19;13.47;;;6.00;;
74042;SDS011;62384;53.600;10.040;2022-12-18T08:23:48;25.53;;;6.57;;
74042;SDS011;62384;53.600;10.040;2022-12-18T08:26:13;10.23;;;5.50;;
74042;SDS011;62384;53.600;10.040;2022-12-18T08:28:39;17.83;;;5.63;;
74042;SDS011;62384;53.600;10.040;2022-12-18T08:31:05;13.83;;;6.93;;
74042;SDS011;62384;53.600;10.040;2022-12-18T08:33:31;13.43;;;6.13;;
74042;SDS011;62384;53.600;10.040;2022-12-18T08:35:57;15.37;;;6.63;;
74042;SDS011;62384;53.600;10.040;2022-12-18T08:38:23;16.20;;;6.80;;
74042;SDS011;62384;53.600;10.040;2022-12-18T08:40:49;16.53;;;6.23;;
74042;SDS011;62384;53.600;10.040;2022-12-18T08:43:14;12.70;;;6.53;;
74042;SDS011;62384;53.600;10.040;2022-12-18T08:45:58;13.23;;;5.73;;
74042;SDS011;62384;53.600;10.040;2022-12-18T08:48:23;18.73;;;6.63;;
74042;SDS011;62384;53.600;10.040;2022-12-18T08:50:58;13.77;;;6.90;;
74042;SDS011;62384;53.600;10.040;2022-12-18T08:53:24;14.90;;;6.27;;
74042;SDS011;62384;53.600;10.040;2022-12-18T08:55:49;13.73;;;6.20;;
74042;SDS011;62384;53.600;10.040;2022-12-18T08:58:14;18.43;;;6.93;;
74042;SDS011;62384;53.600;10.040;2022-12-18T09:00:40;16.07;;;7.00;;
74042;SDS011;62384;53.600;10.040;2022-12-18T09:03:05;13.53;;;5.67;;
74042;SDS011;62384;53.600;10.040;2022-12-18T09:08:05;11.33;;;6.40;;
74042;SDS011;62384;53.600;10.040;2022-12-18T09:10:30;11.97;;;5.20;;
74042;SDS011;62384;53.600;10.040;2022-12-18T09:12:56;16.73;;;5.33;;
74042;SDS011;62384;53.600;10.040;2022-12-18T09:15:21;18.17;;;6.63;;
74042;SDS011;62384;53.600;10.040;2022-12-18T09:17:49;16.50;;;6.90;;
74042;SDS011;62384;53.600;10.040;2022-12-18T09:20:15;19.37;;;6.67;;
74042;SDS011;62384;53.600;10.040;2022-12-18T09:22:40;11.63;;;6.33;;
74042;SDS011;62384;53.600;10.040;2022-12-18T09:25:06;11.27;;;5.67;;
74042;SDS011;62384;53.600;10.040;2022-12-18T09:27:34;15.60;;;5.97;;
74042;SDS011;62384;53.600;10.040;2022-12-18T09:30:00;15.50;;;5.40;;
74042;SDS011;62384;53.600;10.040;2022-12-18T09:32:25;16.30;;;6.63;;
74042;SDS011;62384;53.600;10.040;2022-12-18T09:34:51;16.03;;;6.63;;
74042;SDS011;62384;53.600;10.040;2022-12-18T09:37:16;17.27;;;7.20;;
74042;SDS011;62384;53.600;10.040;2022-12-18T09:39:42;16.77;;;5.10;;
74042;SDS011;62384;53.600;10.040;2022-12-18T09:42:26;11.40;;;5.37;;
74042;SDS011;62384;53.600;10.040;2022-12-18T09:44:52;12.50;;;5.73;;
74042;SDS011;62384;53.600;10.040;2022-12-18T09:47:20;15.07;;;5.17;;
74042;SDS011;62384;53.600;10.040;2022-12-18T09:50:01;15.77;;;6.20;;
74042;SDS011;62384;53.600;10.040;2022-12-18T09:52:34;14.93;;;6.28;;
74042;SDS011;62384;53.600;10.040;2022-12-18T09:55:06;13.60;;;5.70;;
74042;SDS011;62384;53.600;10.040;2022-12-18T09:57:56;15.73;;;6.50;;
74042;SDS011;62384;53.600;10.040;2022-12-18T10:00:27;14.90;;;6.43;;
74042;SDS011;62384;53.600;10.040;2022-12-18T10:02:53;14.50;;;6.47;;
74042;SDS011;62384;53.600;10.040;2022-12-18T10:05:33;12.33;;;5.30;;
74042;SDS011;62384;53.600;10.040;2022-12-18T10:08:05;13.93;;;5.97;;
74042;SDS011;62384;53.600;10.040;2022-12-18T10:10:51;13.47;;;6.30;;
74042;SDS011;62384;53.600;10.040;2022-12-18T10:13:23;22.17;;;6.73;;
74042;SDS011;62384;53.600;10.040;2022-12-18T10:26:44;16.30;;;6.43;;
74042;SDS011;62384;53.600;10.040;2022-12-18T10:29:13;12.67;;;5.77;;
74042;SDS011;62384;53.600;10.040;2022-12-18T10:31:41;14.70;;;6.15;;
74042;SDS011;62384;53.600;10.040;2022-12-18T10:34:15;15.87;;;6.63;;
74042;SDS011;62384;53.600;10.040;2022-12-18T10:36:40;16.40;;;6.10;;
74042;SDS011;62384;53.600;10.040;2022-12-18T10:41:40;15.13;;;6.30;;
74042;SDS011;62384;53.600;10.040;2022-12-18T10:44:27;16.50;;;6.40;;
74042;SDS011;62384;53.600;10.040;2022-12-18T10:46:53;16.47;;;5.77;;
74042;SDS011;62384;53.600;10.040;2022-12-18T10:49:29;13.30;;;6.50;;
74042;SDS011;62384;53.600;10.040;2022-12-18T10:59:55;17.03;;;7.23;;
74042;SDS011;62384;53.600;10.040;2022-12-18T11:02:27;15.50;;;6.50;;
74042;SDS011;62384;53.600;10.040;2022-12-18T11:05:00;15.97;;;6.90;;
74042;SDS011;62384;53.600;10.040;2022-12-18T11:07:26;14.67;;;5.40;;
74042;SDS011;62384;53.600;10.040;2022-12-18T11:10:15;11.63;;;6.30;;
74042;SDS011;62384;53.600;10.040;2022-12-18T11:12:45;15.93;;;7.57;;
74042;SDS011;62384;53.600;10.040;2022-12-18T11:15:29;12.93;;;5.93;;
74042;SDS011;62384;53.600;10.040;2022-12-18T11:17:55;13.23;;;5.57;;
74042;SDS011;62384;53.600;10.040;2022-12-18T11:20:24;13.47;;;6.37;;
74042;SDS011;62384;53.600;10.040;2022-12-18T11:22:54;15.73;;;7.23;;
74042;SDS011;62384;53.600;10.040;2022-12-18T11:27:52;15.05;;;5.97;;
74042;SDS011;62384;53.600;10.040;2022-12-18T11:32:49;13.60;;;5.63;;
74042;SDS011;62384;53.600;10.040;2022-12-18T11:35:47;18.05;;;6.03;;
74042;SDS011;62384;53.600;10.040;2022-12-18T11:38:56;13.32;;;5.70;;
74042;SDS011;62384;53.600;10.040;2022-12-18T11:44:13;13.50;;;5.25;;
74042;SDS011;62384;53.600;10.040;2022-12-18T11:46:59;12.27;;;5.35;;
74042;SDS011;62384;53.600;10.040;2022-12-18T11:49:34;13.73;;;5.45;;
74042;SDS011;62384;53.600;10.040;2022-12-18T11:52:04;17.73;;;6.18;;
74042;SDS011;62384;53.600;10.040;2022-12-18T11:54:38;13.90;;;5.80;;
74042;SDS011;62384;53.600;10.040;2022-12-18T11:57:13;16.55;;;6.82;;
74042;SDS011;62384;53.600;10.040;2022-12-18T12:00:11;20.08;;;7.60;;
74042;SDS011;62384;53.600;10.040;2022-12-18T12:02:48;17.90;;;7.47;;
74042;SDS011;62384;53.600;10.040;2022-12-18T12:16:18;15.13;;;6.50;;
74042;SDS011;62384;53.600;10.040;2022-12-18T12:30:00;16.63;;;5.97;;
74042;SDS011;62384;53.600;10.040;2022-12-18T12:32:37;17.25;;;6.15;;
74042;SDS011;62384;53.600;10.040;2022-12-18T12:35:29;13.73;;;6.67;;
74042;SDS011;62384;53.600;10.040;2022-12-18T12:40:45;16.43;;;6.17;;
74042;SDS011;62384;53.600;10.040;2022-12-18T12:43:20;16.67;;;6.10;;
74042;SDS011;62384;53.600;10.040;2022-12-18T12:51:20;16.63;;;6.23;;
74042;SDS011;62384;53.600;10.040;2022-12-18T12:53:51;15.90;;;5.88;;
74042;SDS011;62384;53.600;10.040;2022-12-18T12:56:18;16.20;;;6.05;;
74042;SDS011;62384;53.600;10.040;2022-12-18T13:01:25;14.73;;;6.63;;
74042;SDS011;62384;53.600;10.040;2022-12-18T13:03:56;13.52;;;5.97;;
74042;SDS011;62384;53.600;10.040;2022-12-18T13:07:06;11.50;;;5.33;;
74042;SDS011;62384;53.600;10.040;2022-12-18T13:12:50;13.75;;;5.15;;
74042;SDS011;62384;53.600;10.040;2022-12-18T13:15:46;17.20;;;6.43;;
74042;SDS011;62384;53.600;10.040;2022-12-18T13:18:31;12.95;;;5.75;;
74042;SDS011;62384;53.600;10.040;2022-12-18T13:25:47;16.70;;;6.20;;
74042;SDS011;62384;53.600;10.040;2022-12-18T13:28:14;15.35;;;7.25;;
74042;SDS011;62384;53.600;10.040;2022-12-18T13:35:51;14.67;;;5.57;;
74042;SDS011;62384;53.600;10.040;2022-12-18T13:40:56;12.70;;;6.20;;
74042;SDS011;62384;53.600;10.040;2022-12-18T13:46:25;17.87;;;6.13;;
74042;SDS011;62384;53.600;10.040;2022-12-18T13:48:54;14.20;;;5.97;;
74042;SDS011;62384;53.600;10.040;2022-12-18T13:51:26;19.80;;;6.10;;
74042;SDS011;62384;53.600;10.040;2022-12-18T13:54:17;17.30;;;6.57;;
74042;SDS011;62384;53.600;10.040;2022-12-18T13:56:46;14.87;;;6.60;;
74042;SDS011;62384;53.600;10.040;2022-12-18T14:01:48;17.17;;;6.75;;
74042;SDS011;62384;53.600;10.040;2022-12-18T14:04:29;18.40;;;7.70;;
74042;SDS011;62384;53.600;10.040;2022-12-18T14:07:12;14.23;;;6.43;;
74042;SDS011;62384;53.600;10.040;2022-12-18T14:09:49;13.33;;;5.97;;
74042;SDS011;62384;53.600;10.040;2022-12-18T14:12:24;15.95;;;6.22;;
74042;SDS011;62384;53.600;10.040;2022-12-18T14:17:55;11.48;;;5.88;;
74042;SDS011;62384;53.600;10.040;2022-12-18T14:20:43;21.93;;;6.53;;
74042;SDS011;62384;53.600;10.040;2022-12-18T14:25:58;21.70;;;7.73;;
74042;SDS011;62384;53.600;10.040;2022-12-18T14:28:25;19.00;;;7.00;;
74042;SDS011;62384;53.600;10.040;2022-12-18T14:30:52;15.37;;;6.90;;
74042;SDS011;62384;53.600;10.040;2022-12-18T14:33:20;20.50;;;6.93;;
74042;SDS011;62384;53.600;10.040;2022-12-18T14:38:35;20.35;;;7.57;;
74042;SDS011;62384;53.600;10.040;2022-12-18T14:41:03;18.63;;;8.50;;
74042;SDS011;62384;53.600;10.040;2022-12-18T14:43:41;19.97;;;7.57;;
74042;SDS011;62384;53.600;10.040;2022-12-18T14:49:23;19.17;;;7.33;;
74042;SDS011;62384;53.600;10.040;2022-12-18T14:52:02;24.40;;;8.10;;
74042;SDS011;62384;53.600;10.040;2022-12-18T14:54:30;20.33;;;7.10;;
74042;SDS011;62384;53.600;10.040;2022-12-18T14:59:30;23.33;;;8.40;;
74042;SDS011;62384;53.600;10.040;2022-12-18T15:04:43;19.70;;;7.03;;
74042;SDS011;62384;53.600;10.040;2022-12-18T15:10:00;20.50;;;7.13;;
74042;SDS011;62384;53.600;10.040;2022-12-18T15:20:54;15.02;;;6.60;;
74042;SDS011;62384;53.600;10.040;2022-12-18T15:30:59;22.60;;;7.65;;
74042;SDS011;62384;53.600;10.040;2022-12-18T15:33:31;15.80;;;7.77;;
74042;SDS011;62384;53.600;10.040;2022-12-18T15:36:07;19.73;;;7.23;;
74042;SDS011;62384;53.600;10.040;2022-12-18T15:38:35;16.80;;;7.60;;
74042;SDS011;62384;53.600;10.040;2022-12-18T15:41:00;19.70;;;6.13;;
74042;SDS011;62384;53.600;10.040;2022-12-18T15:43:30;25.30;;;6.37;;
74042;SDS011;62384;53.600;10.040;2022-12-18T15:46:15;24.13;;;9.27;;
74042;SDS011;62384;53.600;10.040;2022-12-18T15:48:47;21.77;;;6.80;;
74042;SDS011;62384;53.600;10.040;2022-12-18T15:51:36;22.87;;;7.23;;
74042;SDS011;62384;53.600;10.040;2022-12-18T15:54:21;24.20;;;6.97;;
74042;SDS011;62384;53.600;10.040;2022-12-18T15:57:10;24.07;;;8.13;;
74042;SDS011;62384;53.600;10.040;2022-12-18T16:02:34;21.53;;;8.47;;
74042;SDS011;62384;53.600;10.040;2022-12-18T16:04:59;16.10;;;6.93;;
74042;SDS011;62384;53.600;10.040;2022-12-18T16:07:25;21.30;;;6.57;;
74042;SDS011;62384;53.600;10.040;2022-12-18T16:09:50;22.17;;;8.77;;
74042;SDS011;62384;53.600;10.040;2022-12-18T16:12:20;15.77;;;7.60;;
74042;SDS011;62384;53.600;10.040;2022-12-18T16:17:13;20.40;;;6.33;;
74042;SDS011;62384;53.600;10.040;2022-12-18T16:19:39;21.37;;;7.27;;
74042;SDS011;62384;53.600;10.040;2022-12-18T16:22:05;17.47;;;5.80;;
74042;SDS011;62384;53.600;10.040;2022-12-18T16:24:31;22.23;;;7.43;;
74042;SDS011;62384;53.600;10.040;2022-12-18T16:26:58;18.07;;;7.47;;
74042;SDS011;62384;53.600;10.040;2022-12-18T16:29:26;30.33;;;8.80;;
74042;SDS011;62384;53.600;10.040;2022-12-18T16:31:56;17.00;;;7.17;;
74042;SDS011;62384;53.600;10.040;2022-12-18T16:37:12;16.73;;;7.33;;
74042;SDS011;62384;53.600;10.040;2022-12-18T16:39:39;13.40;;;6.07;;
74042;SDS011;62384;53.600;10.040;2022-12-18T16:42:18;17.37;;;6.13;;
74042;SDS011;62384;53.600;10.040;2022-12-18T16:44:45;25.10;;;8.47;;
74042;SDS011;62384;53.600;10.040;2022-12-18T16:47:11;18.70;;;8.13;;
74042;SDS011;62384;53.600;10.040;2022-12-18T16:49:37;26.13;;;8.27;;
74042;SDS011;62384;53.600;10.040;2022-12-18T16:52:04;18.17;;;7.57;;
74042;SDS011;62384;53.600;10.040;2022-12-18T16:54:30;20.07;;;6.67;;
74042;SDS011;62384;53.600;10.040;2022-12-18T16:56:57;20.37;;;8.90;;
74042;SDS011;62384;53.600;10.040;2022-12-18T16:59:23;18.27;;;8.23;;
74042;SDS011;62384;53.600;10.040;2022-12-18T17:01:48;22.03;;;7.93;;
74042;SDS011;62384;53.600;10.040;2022-12-18T17:04:13;22.70;;;7.53;;
74042;SDS011;62384;53.600;10.040;2022-12-18T17:06:42;22.47;;;8.97;;
74042;SDS011;62384;53.600;10.040;2022-12-18T17:09:10;14.27;;;6.63;;
74042;SDS011;62384;53.600;10.040;2022-12-18T17:11:39;15.75;;;7.53;;
74042;SDS011;62384;53.600;10.040;2022-12-18T17:14:06;16.17;;;7.10;;
74042;SDS011;62384;53.600;10.040;2022-12-18T17:16:32;17.23;;;6.60;;
74042;SDS011;62384;53.600;10.040;2022-12-18T17:18:58;23.03;;;7.87;;
74042;SDS011;62384;53.600;10.040;2022-12-18T17:21:23;22.80;;;7.77;;
74042;SDS011;62384;53.600;10.040;2022-12-18T17:23:49;20.47;;;6.60;;